createdAt,value
2023-02-27T00:09:45.941Z,1.40
2023-02-27T00:19:44.805Z,1.20
2023-02-27T00:29:43.717Z,1.10
2023-02-27T00:39:42.870Z,1.20
2023-02-27T00:49:42.314Z,1.10
2023-02-27T00:59:41.803Z,1.20
2023-02-27T01:09:41.335Z,1.10
2023-02-27T01:19:39.881Z,1.00
2023-02-27T01:29:38.946Z,0.90
2023-02-27T01:39:39.685Z,0.90
2023-02-27T01:49:39.459Z,0.90
2023-02-27T02:10:41.871Z,0.70
2023-02-27T02:20:40.969Z,0.60
2023-02-27T02:30:40.002Z,0.70
2023-02-27T02:40:38.796Z,0.70
2023-02-27T02:50:37.832Z,0.70
2023-02-27T03:00:37.196Z,0.80
2023-02-27T03:10:36.087Z,0.70
2023-02-27T03:20:35.313Z,0.60
2023-02-27T03:30:33.898Z,0.60
2023-02-27T03:40:34.779Z,0.50
2023-02-27T03:50:34.549Z,0.40
2023-02-27T04:00:34.231Z,0.30
2023-02-27T04:10:32.910Z,0.20
2023-02-27T04:20:31.947Z,0.10
2023-02-27T04:30:31.002Z,0.10
2023-02-27T04:40:30.053Z,0.00
2023-02-27T04:50:28.904Z,-0.10
2023-02-27T05:00:27.886Z,-0.20
2023-02-27T05:10:27.043Z,-0.20
2023-02-27T05:20:27.387Z,-0.30
2023-02-27T05:30:26.947Z,-0.30
2023-02-27T05:40:25.975Z,-0.30
2023-02-27T05:50:25.014Z,-0.40
2023-02-27T06:00:24.081Z,-0.50
2023-02-27T06:10:23.212Z,-0.50
2023-02-27T06:20:21.957Z,-0.60
2023-02-27T06:30:20.999Z,-0.60
2023-02-27T06:40:20.039Z,-0.50
2023-02-27T06:50:19.086Z,-0.50
2023-02-27T07:00:17.988Z,-0.40
2023-02-27T07:10:17.221Z,-0.30
2023-02-27T07:20:15.917Z,0.00
2023-02-27T07:30:15.055Z,0.20
2023-02-27T07:40:14.483Z,0.40
2023-02-27T07:50:14.064Z,0.60
2023-02-27T08:00:12.895Z,0.90
2023-02-27T08:10:12.080Z,1.20
2023-02-27T08:20:11.505Z,1.50
2023-02-27T08:30:10.964Z,2.00
2023-02-27T08:40:10.495Z,2.50
2023-02-27T08:50:10.243Z,2.90
2023-02-27T09:00:09.897Z,3.30
2023-02-27T09:10:09.217Z,3.70
2023-02-27T09:20:09.136Z,4.50
2023-02-27T09:30:08.541Z,4.60
2023-02-27T09:40:08.337Z,4.50
2023-02-27T09:50:07.101Z,4.40
2023-02-27T10:00:07.773Z,4.40
2023-02-27T10:10:07.186Z,4.30
2023-02-27T10:20:05.889Z,4.50
2023-02-27T10:30:05.376Z,4.70
2023-02-27T10:40:04.213Z,5.10
2023-02-27T10:50:02.981Z,5.10
2023-02-27T11:00:04.141Z,5.10
2023-02-27T11:10:03.023Z,5.30
2023-02-27T11:20:01.945Z,5.60
2023-02-27T11:30:01.318Z,5.50
2023-02-27T11:39:59.936Z,5.50
2023-02-27T11:49:59.003Z,5.60
2023-02-27T11:59:58.036Z,5.80
2023-02-27T12:09:57.267Z,5.80
2023-02-27T12:19:56.002Z,6.00
2023-02-27T12:29:55.076Z,6.10
2023-02-27T12:39:54.021Z,6.40
2023-02-27T12:49:53.146Z,6.70
2023-02-27T12:59:52.446Z,6.80
2023-02-27T13:09:51.033Z,7.00
2023-02-27T13:19:50.062Z,7.30
2023-02-27T13:29:49.128Z,7.30
2023-02-27T13:39:49.531Z,7.50
2023-02-27T13:49:48.252Z,7.50
2023-02-27T13:59:48.983Z,7.70
2023-02-27T14:09:48.065Z,7.90
2023-02-27T14:19:47.932Z,8.20
2023-02-27T14:29:47.694Z,8.50
2023-02-27T14:39:47.073Z,8.60
2023-02-27T14:49:46.385Z,8.30
2023-02-27T14:59:45.269Z,8.20
2023-02-27T15:09:44.323Z,7.90
2023-02-27T15:19:43.064Z,7.80
2023-02-27T15:29:42.425Z,7.90
2023-02-27T15:39:41.042Z,8.10
2023-02-27T15:49:40.295Z,8.00
2023-02-27T15:59:39.037Z,7.30
2023-02-27T16:09:38.563Z,7.10
2023-02-27T16:19:37.091Z,6.90
2023-02-27T16:29:36.075Z,6.50
2023-02-27T16:39:35.333Z,6.30
2023-02-27T16:49:34.153Z,6.00
2023-02-27T16:59:33.379Z,5.80
2023-02-27T17:09:32.261Z,5.60
2023-02-27T17:19:31.211Z,5.50
2023-02-27T17:29:30.181Z,5.30
2023-02-27T17:39:29.403Z,5.10
2023-02-27T17:49:28.238Z,5.00
2023-02-27T17:59:27.239Z,4.90
2023-02-27T18:09:26.626Z,4.90
2023-02-27T18:19:26.524Z,4.80
2023-02-27T18:29:25.230Z,4.70
2023-02-27T18:39:24.249Z,4.80
2023-02-27T18:49:23.373Z,5.00
2023-02-27T18:59:22.386Z,5.20
2023-02-27T19:09:22.183Z,5.30
2023-02-27T19:19:21.275Z,5.40
2023-02-27T19:29:20.486Z,5.50
2023-02-27T19:39:19.362Z,5.40
2023-02-27T19:49:18.557Z,5.10
2023-02-27T19:59:17.933Z,5.00
2023-02-27T20:09:17.349Z,4.80
2023-02-27T20:19:16.374Z,4.70
2023-02-27T20:29:15.222Z,4.60
2023-02-27T20:39:14.280Z,4.40
2023-02-27T20:49:15.335Z,4.30
2023-02-27T20:59:14.444Z,4.10
2023-02-27T21:09:13.489Z,4.00
2023-02-27T21:19:12.310Z,3.90
2023-02-27T21:29:11.353Z,3.70
2023-02-27T21:39:10.903Z,3.50
2023-02-27T21:49:10.350Z,3.30
2023-02-27T21:59:12.595Z,3.10
2023-02-27T22:09:11.447Z,3.00
2023-02-27T22:19:13.464Z,2.70
2023-02-27T22:29:12.407Z,2.50
2023-02-27T22:39:11.448Z,2.40
2023-02-27T22:49:10.592Z,2.40
2023-02-27T22:59:09.334Z,2.40
2023-02-27T23:09:08.495Z,2.40
2023-02-27T23:19:07.533Z,2.40
2023-02-27T23:29:06.567Z,2.50
2023-02-27T23:39:08.493Z,2.50
2023-02-27T23:49:08.334Z,2.40
2023-02-27T23:59:07.335Z,2.20
